createdAt,value
2019-03-10T00:01:00.307Z,7.84
2019-03-10T00:11:47.256Z,7.89
2019-03-10T00:22:33.067Z,7.90
2019-03-10T00:33:18.128Z,7.97
2019-03-10T00:43:57.268Z,8.03
2019-03-10T00:54:39.975Z,7.96
2019-03-10T01:05:22.807Z,7.79
2019-03-10T01:16:07.455Z,7.86
2019-03-10T01:26:53.407Z,7.79
2019-03-10T01:37:39.553Z,7.71
2019-03-10T01:48:25.929Z,7.71
2019-03-10T01:59:09.754Z,7.65
2019-03-10T02:09:53.256Z,7.64
2019-03-10T02:20:39.093Z,7.58
2019-03-10T02:31:22.564Z,7.48
2019-03-10T02:42:06.037Z,7.44
2019-03-10T02:52:51.571Z,7.47
2019-03-10T03:03:31.533Z,7.41
2019-03-10T03:14:15.522Z,7.39
2019-03-10T03:25:00.579Z,7.30
2019-03-10T03:35:47.220Z,7.35
2019-03-10T03:46:29.815Z,7.41
2019-03-10T03:57:11.904Z,7.29
2019-03-10T04:07:58.302Z,7.25
2019-03-10T04:18:35.787Z,7.21
2019-03-10T04:29:21.690Z,7.14
2019-03-10T04:40:04.831Z,7.03
2019-03-10T04:50:50.361Z,6.79
2019-03-10T05:01:34.252Z,6.73
2019-03-10T05:12:17.933Z,6.60
2019-03-10T05:23:01.021Z,6.64
2019-03-10T05:33:46.918Z,6.67
2019-03-10T05:44:29.268Z,6.65
2019-03-10T05:55:14.776Z,6.70
2019-03-10T06:06:00.351Z,6.76
2019-03-10T06:16:42.031Z,6.80
2019-03-10T06:27:26.334Z,6.86
2019-03-10T06:38:11.295Z,6.91
2019-03-10T06:48:55.952Z,7.01
2019-03-10T06:59:42.433Z,7.12
2019-03-10T07:10:29.264Z,7.21
2019-03-10T07:21:10.860Z,7.40
2019-03-10T07:31:58.680Z,7.66
2019-03-10T07:42:44.052Z,7.97
2019-03-10T07:53:27.241Z,-1000.00
2019-03-10T08:04:12.923Z,-1000.00
2019-03-10T08:14:58.496Z,-1000.00
2019-03-10T08:25:38.293Z,-1000.00
2019-03-10T08:36:23.023Z,-1000.00
2019-03-10T08:47:09.704Z,-1000.00
2019-03-10T08:57:55.754Z,0.00
2019-03-10T09:08:41.162Z,12.20
2019-03-10T09:19:26.636Z,12.46
2019-03-10T09:30:11.518Z,12.83
2019-03-10T09:40:57.978Z,13.18
2019-03-10T09:51:43.077Z,13.36
2019-03-10T10:02:28.213Z,13.39
2019-03-10T10:13:13.447Z,13.59
2019-03-10T10:23:57.072Z,14.04
2019-03-10T10:34:43.320Z,13.54
2019-03-10T10:45:26.648Z,13.31
2019-03-10T10:56:13.981Z,13.87
2019-03-10T11:06:59.650Z,14.05
2019-03-10T11:17:46.911Z,14.75
2019-03-10T11:28:31.988Z,14.92
2019-03-10T11:39:09.767Z,14.75
2019-03-10T11:49:55.245Z,14.75
2019-03-10T12:00:37.029Z,14.31
2019-03-10T12:11:22.568Z,14.38
2019-03-10T12:22:08.203Z,14.45
2019-03-10T12:32:53.925Z,14.18
2019-03-10T12:43:37.341Z,14.24
2019-03-10T12:54:24.253Z,13.82
2019-03-10T13:05:09.227Z,14.11
2019-03-10T13:15:54.766Z,13.65
2019-03-10T13:26:41.670Z,13.83
2019-03-10T13:37:25.991Z,13.89
2019-03-10T13:48:11.424Z,13.73
2019-03-10T13:58:55.717Z,13.81
2019-03-10T14:09:40.604Z,13.53
2019-03-10T14:20:25.679Z,13.48
2019-03-10T14:31:08.545Z,12.50
2019-03-10T14:41:49.070Z,10.95
2019-03-10T14:52:33.307Z,11.03
2019-03-10T15:03:19.425Z,11.58
2019-03-10T15:14:02.061Z,10.75
2019-03-10T15:24:43.258Z,9.53
2019-03-10T15:35:28.836Z,9.46
2019-03-10T15:46:13.903Z,9.18
2019-03-10T15:57:00.665Z,9.02
2019-03-10T16:07:45.883Z,8.80
2019-03-10T16:18:31.441Z,8.74
2019-03-10T16:29:16.556Z,8.02
2019-03-10T16:39:59.738Z,7.46
2019-03-10T16:50:44.833Z,6.82
2019-03-10T17:01:30.651Z,6.81
2019-03-10T17:12:14.211Z,6.83
2019-03-10T17:23:01.249Z,6.88
2019-03-10T17:33:45.504Z,6.95
2019-03-10T17:44:27.814Z,6.83
2019-03-10T17:55:13.475Z,6.76
2019-03-10T18:05:57.531Z,6.85
2019-03-10T18:16:40.516Z,6.91
2019-03-10T18:27:25.657Z,6.86
2019-03-10T18:38:10.480Z,6.83
2019-03-10T18:48:55.854Z,6.82
2019-03-10T18:59:41.839Z,6.83
2019-03-10T19:10:28.616Z,6.85
2019-03-10T19:21:13.145Z,6.82
2019-03-10T19:31:58.978Z,6.66
2019-03-10T19:42:36.934Z,6.45
2019-03-10T19:53:21.899Z,6.27
2019-03-10T20:04:06.325Z,6.13
2019-03-10T20:14:51.376Z,5.95
2019-03-10T20:25:36.985Z,6.02
2019-03-10T20:36:20.732Z,4.82
2019-03-10T20:47:03.343Z,4.41
2019-03-10T20:57:46.061Z,4.40
2019-03-10T21:08:31.836Z,4.33
2019-03-10T21:19:10.279Z,4.32
2019-03-10T21:29:56.115Z,4.32
2019-03-10T21:40:39.043Z,3.66
2019-03-10T21:51:25.672Z,3.70
2019-03-10T22:02:11.879Z,3.81
2019-03-10T22:12:55.325Z,4.08
2019-03-10T22:23:42.039Z,4.31
2019-03-10T22:34:29.058Z,4.39
2019-03-10T22:45:16.105Z,4.65
2019-03-10T22:56:01.745Z,4.79
2019-03-10T23:06:43.522Z,4.80
2019-03-10T23:17:29.298Z,4.69
2019-03-10T23:28:14.144Z,4.69
2019-03-10T23:39:00.289Z,4.63
2019-03-10T23:49:45.388Z,4.58
